Terminal Aerodrome Forecast
Issued by NWS

Current Version | Previous Version | Graphics & Text | Print | Product List | Glossary On
Versions: 1 2 3 4 5 6 7 8 9 10 11 12 13 14 15 16 17
000
FTUS41 KRNK 301923 AAA
TAFLWB
TAF AMD
KLWB 301923Z 3019/3118 33006KT P6SM SCT035
     FM310600 VRB03KT P6SM BKN035
     FM311300 16003KT P6SM BKN080=

USA.gov is the U.S. government's official web portal to all federal, state and local government web resources and services.